Time;durP1;ratioP1;P1;durP2;ratioP2;P2;SDS_P1;SDS_P2;PMS_P1;PMS_P2;Temp;Humidity;BMP_temperature;BMP_pressure;BME280_temperature;BME280_humidity;BME280_pressure;Samples;Min_cycle;Max_cycle;Signal;HPM_P1;HPM_P2
2022/03/08 00:00:54;;;;;;;28.38;15.00;;;;;;;-0.76;56.78;101138.19;20986659;28;20127;-64
2022/03/08 00:10:56;;;;;;;29.35;15.50;;;;;;;-0.90;56.96;101135.03;20986616;28;20106;-64
2022/03/08 00:20:57;;;;;;;30.77;14.85;;;;;;;-0.97;57.17;101139.00;20985523;28;20559;-64
2022/03/08 00:30:59;;;;;;;28.10;15.05;;;;;;;-0.90;55.80;101137.59;20984428;28;20513;-63
2022/03/08 00:41:00;;;;;;;28.75;14.23;;;;;;;-0.86;55.82;101127.50;20983856;28;20095;-64
2022/03/08 00:51:02;;;;;;;29.77;14.13;;;;;;;-0.92;56.13;101124.66;20983821;28;20055;-63
2022/03/08 01:01:04;;;;;;;28.65;13.52;;;;;;;-1.07;56.70;101130.03;20982177;28;20067;-64
2022/03/08 01:11:06;;;;;;;23.02;12.57;;;;;;;-1.08;56.53;101124.81;20978920;28;20056;-65
2022/03/08 01:21:07;;;;;;;27.40;13.38;;;;;;;-0.95;57.19;101121.97;20981890;28;20106;-64
2022/03/08 01:31:09;;;;;;;25.55;12.90;;;;;;;-1.01;57.46;101110.53;20981764;28;20044;-63
2022/03/08 01:41:11;;;;;;;22.83;12.20;;;;;;;-1.13;58.48;101110.91;20978054;28;20074;-63
2022/03/08 01:51:14;;;;;;;24.77;12.38;;;;;;;-1.19;58.73;101098.69;20981593;28;20048;-63
2022/03/08 02:01:15;;;;;;;28.95;12.35;;;;;;;-1.27;59.01;101081.19;20980317;28;20398;-63
2022/03/08 02:11:18;;;;;;;23.55;12.30;;;;;;;-1.31;59.24;101068.19;20983978;28;20052;-63
2022/03/08 02:21:19;;;;;;;28.92;13.60;;;;;;;-1.39;59.99;101066.09;20995262;28;20082;-63
2022/03/08 02:31:21;;;;;;;26.50;13.10;;;;;;;-1.55;60.67;101051.72;20993896;28;20052;-63
2022/03/08 02:41:24;;;;;;;23.17;11.90;;;;;;;-1.51;61.10;101043.34;20993451;28;20537;-64
2022/03/08 02:51:25;;;;;;;20.00;11.40;;;;;;;-1.73;62.68;101035.50;20993011;28;20451;-64
2022/03/08 03:01:27;;;;;;;26.05;11.38;;;;;;;-1.75;63.14;101032.00;20991744;28;20109;-64
2022/03/08 03:11:29;;;;;;;23.38;11.75;;;;;;;-1.50;61.51;101042.53;20992502;28;20056;-64
2022/03/08 03:21:30;;;;;;;23.20;12.50;;;;;;;-1.60;62.34;101027.53;20989363;28;20048;-63
2022/03/08 03:31:32;;;;;;;23.23;11.20;;;;;;;-1.86;63.98;101026.41;20988288;28;20097;-63
2022/03/08 03:41:34;;;;;;;22.83;12.23;;;;;;;-2.05;65.04;101024.72;20988170;28;20131;-63
2022/03/08 03:51:35;;;;;;;22.75;12.75;;;;;;;-2.48;68.01;101034.69;20987358;28;20050;-63
2022/03/08 04:01:37;;;;;;;27.23;12.75;;;;;;;-2.47;67.92;101034.75;20985622;28;20041;-63
2022/03/08 04:11:39;;;;;;;22.45;12.07;;;;;;;-2.32;66.12;101027.78;20985182;28;20048;-63
2022/03/08 04:21:40;;;;;;;26.13;12.60;;;;;;;-2.44;67.13;101024.66;20985102;28;20060;-63
2022/03/08 04:31:42;;;;;;;25.33;12.65;;;;;;;-2.44;67.15;101029.78;20983296;28;20082;-63
2022/03/08 04:41:43;;;;;;;27.98;12.25;;;;;;;-2.15;65.08;101012.28;20982270;28;20049;-63
2022/03/08 04:51:45;;;;;;;24.08;12.18;;;;;;;-1.97;63.82;101002.81;20982763;28;20110;-63
2022/03/08 05:01:49;;;;;;;24.75;12.25;;;;;;;-2.09;64.38;101015.13;20981809;28;20058;-63
2022/03/08 05:11:50;;;;;;;26.77;13.03;;;;;;;-2.16;65.04;101015.63;20981794;28;20293;-63
2022/03/08 05:21:52;;;;;;;23.40;11.63;;;;;;;-2.37;66.38;101034.38;20981184;28;20099;-63
2022/03/08 05:31:53;;;;;;;25.00;12.50;;;;;;;-2.46;66.96;101026.25;20980106;28;20045;-63
2022/03/08 05:41:55;;;;;;;25.83;13.65;;;;;;;-2.43;67.15;101013.59;20979614;28;20056;-63
2022/03/08 05:51:57;;;;;;;26.20;12.02;;;;;;;-2.46;66.82;101016.00;20994173;28;20044;-64
2022/03/08 06:01:58;;;;;;;28.80;13.30;;;;;;;-2.47;67.92;101018.50;20995795;28;20122;-64
2022/03/08 06:12:00;;;;;;;23.60;12.35;;;;;;;-2.35;67.08;101019.97;20996101;28;20048;-64
2022/03/08 06:22:02;;;;;;;27.48;13.35;;;;;;;-2.17;66.40;101029.28;20997040;28;20056;-65
2022/03/08 06:32:04;;;;;;;21.27;11.68;;;;;;;-2.29;67.84;101044.13;20996184;28;20090;-65
2022/03/08 06:42:06;;;;;;;26.42;12.88;;;;;;;-1.98;65.88;101046.38;20994175;28;20053;-64
2022/03/08 06:52:09;;;;;;;23.83;11.68;;;;;;;-1.51;62.83;101055.31;20992894;28;20478;-65
2022/03/08 07:02:10;;;;;;;25.17;12.15;;;;;;;-1.24;62.07;101071.03;20991002;28;20394;-64
2022/03/08 07:12:12;;;;;;;20.67;10.90;;;;;;;-1.07;60.69;101081.19;20990924;28;20048;-65
2022/03/08 07:22:15;;;;;;;23.40;12.68;;;;;;;-0.84;60.15;101077.03;20989853;28;20125;-64
2022/03/08 07:32:17;;;;;;;24.70;11.73;;;;;;;-0.53;59.14;101079.16;20986374;28;20489;-65
2022/03/08 07:42:19;;;;;;;23.70;12.18;;;;;;;-0.23;58.27;101070.00;20971787;28;20052;-65
2022/03/08 07:52:21;;;;;;;20.02;11.38;;;;;;;-0.03;57.43;101072.50;20970942;28;20049;-65
2022/03/08 08:02:22;;;;;;;24.13;10.70;;;;;;;0.44;55.88;101078.53;20983831;28;20475;-65
2022/03/08 08:12:24;;;;;;;20.50;11.73;;;;;;;0.75;55.40;101064.13;20939185;28;20050;-63
2022/03/08 08:22:25;;;;;;;18.70;10.20;;;;;;;1.10;53.24;101057.59;20934316;28;20060;-63
2022/03/08 08:32:27;;;;;;;15.88;9.52;;;;;;;1.46;51.35;101046.72;20935331;28;20106;-62
2022/03/08 08:42:28;;;;;;;20.95;10.77;;;;;;;1.73;51.11;101032.09;20951077;28;20056;-62
2022/03/08 08:52:30;;;;;;;20.50;9.80;;;;;;;1.92;50.38;101027.47;20975096;28;20456;-63
2022/03/08 09:02:32;;;;;;;16.02;9.32;;;;;;;2.33;50.87;101017.44;20973617;28;20044;-63
2022/03/08 09:12:33;;;;;;;22.70;10.45;;;;;;;2.74;47.75;101009.06;20973868;28;20045;-63
2022/03/08 09:22:36;;;;;;;19.05;9.73;;;;;;;2.95;48.26;101002.69;20972958;28;20052;-64
2022/03/08 09:32:37;;;;;;;23.30;10.40;;;;;;;3.34;47.84;100998.44;20967792;28;20045;-63
2022/03/08 09:42:39;;;;;;;16.63;9.57;;;;;;;3.72;47.19;100979.44;20970948;28;20057;-63
2022/03/08 09:52:41;;;;;;;15.43;8.60;;;;;;;4.26;45.57;100973.63;20972435;28;20148;-64
2022/03/08 10:02:45;;;;;;;15.57;8.95;;;;;;;4.63;45.12;100975.16;20971374;28;20048;-64
2022/03/08 10:12:56;;;;;;;18.40;10.10;;;;;;;4.85;42.84;100956.53;20971546;28;20056;-63
2022/03/08 10:22:59;;;;;;;15.30;8.85;;;;;;;5.07;42.22;100956.88;20969932;28;20055;-63
2022/03/08 10:33:00;;;;;;;16.35;8.20;;;;;;;5.20;43.93;100953.63;20974256;28;20073;-65
2022/03/08 10:43:05;;;;;;;18.48;9.63;;;;;;;5.48;40.72;100939.31;20984343;28;20114;-64
2022/03/08 10:53:08;;;;;;;16.60;9.90;;;;;;;5.70;40.66;100930.09;20984582;28;20075;-64
2022/03/08 11:03:15;;;;;;;15.40;8.90;;;;;;;5.70;42.25;100929.19;20983328;28;20164;-64
2022/03/08 11:13:17;;;;;;;16.65;9.85;;;;;;;6.28;40.58;100916.91;20982795;28;20460;-65
2022/03/08 11:23:19;;;;;;;15.00;8.65;;;;;;;6.32;40.84;100919.53;20983626;28;20056;-65
2022/03/08 11:33:26;;;;;;;15.95;8.77;;;;;;;6.45;38.18;100891.03;20981020;28;20072;-66
2022/03/08 11:43:42;;;;;;;13.93;8.07;;;;;;;6.67;39.57;100882.56;20980500;28;20053;-64
2022/03/08 11:53:47;;;;;;;13.05;7.63;;;;;;;6.69;39.79;100862.63;20975542;28;20048;-64
2022/03/08 12:03:55;;;;;;;10.93;6.43;;;;;;;7.07;36.38;100854.19;20977858;28;20105;-64
2022/03/08 12:14:06;;;;;;;12.70;6.45;;;;;;;7.12;35.90;100836.88;20977745;28;20040;-64
2022/03/08 12:24:07;;;;;;;9.93;6.07;;;;;;;7.33;35.17;100831.78;20976843;28;20057;-64
2022/03/08 12:34:09;;;;;;;11.40;6.00;;;;;;;7.34;34.95;100830.91;20975375;28;20456;-63
2022/03/08 12:44:30;;;;;;;11.98;5.80;;;;;;;7.59;33.05;100821.44;20975168;28;20051;-64
2022/03/08 12:54:34;;;;;;;12.52;5.70;;;;;;;7.71;33.04;100815.38;20973192;28;20055;-63
2022/03/08 13:04:36;;;;;;;10.83;5.57;;;;;;;7.66;33.61;100807.56;20971819;28;20129;-64
2022/03/08 13:14:38;;;;;;;13.20;5.40;;;;;;;7.80;32.45;100799.78;20971052;28;20444;-63
2022/03/08 13:24:39;;;;;;;11.00;4.95;;;;;;;7.80;31.98;100799.78;20971923;28;20056;-63
2022/03/08 13:34:41;;;;;;;10.18;4.85;;;;;;;8.00;31.42;100792.00;20969944;28;20497;-63
2022/03/08 13:44:42;;;;;;;11.60;5.15;;;;;;;8.04;30.09;100779.81;20973483;28;20105;-63
2022/03/08 13:54:44;;;;;;;12.55;5.43;;;;;;;8.20;31.34;100779.84;20967888;28;20489;-63
2022/03/08 14:04:46;;;;;;;9.32;5.00;;;;;;;8.25;30.40;100785.06;20973418;28;20078;-63
2022/03/08 14:15:00;;;;;;;14.38;5.03;;;;;;;8.51;29.92;100792.88;20985714;28;20639;-64
2022/03/08 14:25:03;;;;;;;12.05;5.15;;;;;;;8.33;30.71;100791.13;20983356;28;20555;-63
2022/03/08 14:35:34;;;;;;;9.77;4.97;;;;;;;8.47;31.07;100768.53;20984652;28;20048;-63
2022/03/08 14:45:37;;;;;;;10.40;5.00;;;;;;;8.28;29.97;100777.22;20929826;28;20045;-64
2022/03/08 14:55:58;;;;;;;9.93;5.10;;;;;;;8.38;31.13;100768.53;20967671;28;20114;-65
2022/03/08 15:06:00;;;;;;;9.20;4.38;;;;;;;8.55;30.33;100759.84;20981576;28;20052;-64
2022/03/08 15:16:01;;;;;;;10.93;5.15;;;;;;;8.35;30.93;100771.13;20946528;28;20497;-64
2022/03/08 15:26:03;;;;;;;10.82;5.60;;;;;;;8.54;30.83;100773.75;20930792;28;20048;-64
2022/03/08 15:36:06;;;;;;;9.05;4.78;;;;;;;8.49;30.97;100771.16;20956864;28;20083;-65
2022/03/08 15:46:07;;;;;;;11.40;5.25;;;;;;;8.58;30.40;100765.06;20910820;28;20048;-65
2022/03/08 15:56:10;;;;;;;11.38;4.93;;;;;;;8.18;30.15;100754.59;20945442;28;20098;-66
2022/03/08 16:06:11;;;;;;;8.30;4.43;;;;;;;8.06;30.80;100770.28;20951824;28;20122;-65
2022/03/08 16:16:12;;;;;;;12.07;4.95;;;;;;;7.94;32.17;100753.72;20950986;28;20067;-65
2022/03/08 16:26:14;;;;;;;7.93;4.88;;;;;;;7.86;31.62;100763.31;20951502;28;20081;-66
2022/03/08 16:36:16;;;;;;;10.95;5.13;;;;;;;7.51;31.46;100770.16;20952859;28;20107;-65
2022/03/08 16:46:18;;;;;;;16.85;6.32;;;;;;;7.35;31.83;100775.34;20910287;28;20541;-65
2022/03/08 16:56:19;;;;;;;15.57;5.45;;;;;;;7.15;31.64;100780.47;20924681;28;20056;-66
2022/03/08 17:06:21;;;;;;;7.80;4.80;;;;;;;6.84;32.03;100776.84;20951496;28;20109;-65
2022/03/08 17:16:23;;;;;;;9.82;5.25;;;;;;;6.52;33.52;100796.59;20950133;28;20083;-65
2022/03/08 17:26:24;;;;;;;9.30;4.53;;;;;;;6.32;33.44;100807.69;20950928;28;20541;-65
2022/03/08 17:36:26;;;;;;;12.38;5.55;;;;;;;5.96;33.88;100817.78;20928637;28;20106;-65
2022/03/08 17:46:27;;;;;;;17.17;6.63;;;;;;;5.61;35.26;100832.13;20941000;28;20088;-65
2022/03/08 17:56:29;;;;;;;10.05;5.60;;;;;;;5.61;35.46;100846.84;20960165;28;20719;-66
2022/03/08 18:06:30;;;;;;;10.93;5.82;;;;;;;5.37;34.91;100857.81;20964986;28;20078;-65
2022/03/08 18:16:32;;;;;;;22.98;10.50;;;;;;;5.15;36.32;100867.03;20959992;28;20083;-66
2022/03/08 18:26:33;;;;;;;23.20;11.80;;;;;;;4.97;36.65;100856.38;20919137;28;20053;-65
2022/03/08 18:36:34;;;;;;;23.02;10.65;;;;;;;5.11;36.24;100867.81;20923180;28;20153;-65
2022/03/08 18:46:36;;;;;;;23.58;12.52;;;;;;;5.01;37.62;100871.13;20959029;28;20073;-65
2022/03/08 18:56:39;;;;;;;15.35;8.73;;;;;;;4.23;41.66;100880.28;20912364;28;20064;-65
2022/03/08 19:06:40;;;;;;;13.88;6.28;;;;;;;3.79;41.31;100876.00;20959720;28;20465;-65
2022/03/08 19:16:42;;;;;;;15.88;5.80;;;;;;;3.31;43.74;100889.69;20928370;28;20776;-65
2022/03/08 19:26:43;;;;;;;12.40;5.50;;;;;;;3.00;44.46;100892.44;20917649;28;20466;-66
2022/03/08 19:36:45;;;;;;;26.77;11.13;;;;;;;2.84;45.40;100896.38;20907697;28;20049;-65
2022/03/08 19:46:47;;;;;;;40.65;22.08;;;;;;;2.95;44.47;100899.22;20930238;28;20094;-66
2022/03/08 19:56:49;;;;;;;24.48;11.48;;;;;;;3.36;42.90;100891.53;20955074;28;20088;-65
2022/03/08 20:06:52;;;;;;;18.58;8.63;;;;;;;3.52;41.96;100894.44;20954133;28;20426;-66
2022/03/08 20:16:54;;;;;;;17.50;9.35;;;;;;;3.64;42.08;100898.13;20924493;28;20139;-66
2022/03/08 20:26:57;;;;;;;18.08;9.15;;;;;;;3.47;42.76;100906.41;20943542;28;20429;-66
2022/03/08 20:36:58;;;;;;;18.08;10.15;;;;;;;3.17;43.17;100917.00;20948752;28;20065;-66
2022/03/08 20:47:02;;;;;;;32.97;15.48;;;;;;;2.93;44.54;100926.78;20938881;28;20084;-66
2022/03/08 20:57:05;;;;;;;54.90;23.65;;;;;;;2.64;45.39;100921.78;20953162;28;20055;-66
2022/03/08 21:07:07;;;;;;;48.72;23.30;;;;;;;2.26;47.33;100939.75;20948749;28;20064;-66
2022/03/08 21:17:11;;;;;;;46.72;23.25;;;;;;;1.99;48.70;100960.53;20949798;28;20114;-66
2022/03/08 21:27:13;;;;;;;33.10;14.27;;;;;;;1.80;49.58;100964.31;20948599;28;20062;-66
2022/03/08 21:37:14;;;;;;;20.35;10.70;;;;;;;1.48;50.75;100975.38;20950807;28;20125;-65
2022/03/08 21:47:16;;;;;;;25.38;10.98;;;;;;;1.34;50.85;100984.41;20975487;28;20048;-66
2022/03/08 21:57:19;;;;;;;29.48;13.30;;;;;;;1.26;50.95;100987.63;20969778;28;20049;-65
2022/03/08 22:07:20;;;;;;;33.40;16.48;;;;;;;1.25;51.06;100983.31;20931532;28;20049;-66
2022/03/08 22:17:24;;;;;;;42.45;16.15;;;;;;;1.30;50.63;100985.16;20940908;28;20063;-66
2022/03/08 22:27:26;;;;;;;29.85;14.00;;;;;;;1.23;50.46;100992.69;20971455;28;20048;-66
2022/03/08 22:37:29;;;;;;;29.65;14.52;;;;;;;1.16;51.04;100989.88;20985612;28;20398;-66
2022/03/08 22:47:32;;;;;;;27.40;13.65;;;;;;;0.99;51.99;100997.94;20985506;28;20044;-66
2022/03/08 22:57:36;;;;;;;25.50;11.48;;;;;;;1.05;51.66;101010.13;20984252;28;20076;-66
2022/03/08 23:07:38;;;;;;;23.15;12.88;;;;;;;1.00;52.28;101009.13;20988090;28;20048;-66
2022/03/08 23:17:41;;;;;;;22.65;11.43;;;;;;;1.07;51.75;101013.66;20990859;28;20051;-66
2022/03/08 23:27:44;;;;;;;22.08;10.50;;;;;;;1.09;51.83;101030.06;20986254;28;20394;-67
2022/03/08 23:37:47;;;;;;;20.10;9.48;;;;;;;0.99;52.20;101022.84;20982591;23;20048;-72
2022/03/08 23:47:50;;;;;;;38.15;13.93;;;;;;;0.90;53.08;101027.69;20949898;28;20437;-71
2022/03/08 23:57:53;;;;;;;25.23;9.80;;;;;;;0.74;54.07;101040.06;20979135;28;20112;-71
